createdAt,value
2018-08-25T00:01:03.534Z,50.80
2018-08-25T00:03:33.032Z,50.80
2018-08-25T00:06:02.907Z,50.50
2018-08-25T00:08:33.641Z,50.30
2018-08-25T00:11:04.680Z,49.60
2018-08-25T00:13:34.448Z,50.10
2018-08-25T00:16:05.252Z,48.70
2018-08-25T00:18:35.094Z,48.70
2018-08-25T00:21:04.476Z,49.20
2018-08-25T00:23:33.732Z,48.70
2018-08-25T00:26:03.241Z,50.10
2018-08-25T00:28:32.641Z,51.30
2018-08-25T00:31:02.664Z,51.50
2018-08-25T00:33:33.778Z,51.60
2018-08-25T00:36:03.136Z,51.40
2018-08-25T00:38:32.686Z,51.00
2018-08-25T00:41:02.283Z,50.60
2018-08-25T00:43:32.030Z,50.40
2018-08-25T00:46:01.578Z,50.70
2018-08-25T00:48:31.017Z,50.40
2018-08-25T00:51:00.331Z,50.40
2018-08-25T00:53:30.059Z,49.70
2018-08-25T00:55:59.598Z,49.80
2018-08-25T00:58:29.740Z,49.90
2018-08-25T01:01:00.416Z,50.30
2018-08-25T01:03:29.721Z,50.70
2018-08-25T01:05:59.297Z,49.90
2018-08-25T01:08:29.190Z,49.60
2018-08-25T01:11:01.898Z,49.50
2018-08-25T01:13:31.271Z,49.70
2018-08-25T01:16:00.815Z,50.10
2018-08-25T01:18:30.455Z,49.60
2018-08-25T01:21:02.809Z,50.70
2018-08-25T01:23:32.447Z,51.00
2018-08-25T01:26:03.144Z,50.70
2018-08-25T01:28:32.537Z,51.00
2018-08-25T01:31:02.260Z,51.50
2018-08-25T01:33:32.120Z,52.10
2018-08-25T01:36:01.733Z,52.40
2018-08-25T01:38:31.186Z,53.30
2018-08-25T01:41:00.855Z,53.90
2018-08-25T01:43:30.427Z,53.90
2018-08-25T01:45:59.991Z,53.90
2018-08-25T01:48:29.725Z,54.00
2018-08-25T01:50:59.298Z,54.10
2018-08-25T01:53:29.051Z,54.40
2018-08-25T01:56:00.725Z,54.20
2018-08-25T01:58:30.404Z,54.10
2018-08-25T02:00:59.887Z,54.80
2018-08-25T02:03:29.717Z,54.80
2018-08-25T02:05:59.240Z,55.20
2018-08-25T02:08:42.136Z,55.90
2018-08-25T02:11:12.416Z,56.10
2018-08-25T02:13:42.488Z,56.00
2018-08-25T02:16:15.676Z,56.00
2018-08-25T02:18:45.340Z,56.30
2018-08-25T02:21:14.988Z,56.20
2018-08-25T02:23:44.805Z,56.60
2018-08-25T02:26:14.352Z,56.70
2018-08-25T02:28:43.835Z,57.00
2018-08-25T02:31:13.416Z,57.50
2018-08-25T02:33:42.851Z,57.70
2018-08-25T02:36:12.705Z,58.00
2018-08-25T02:38:44.291Z,58.30
2018-08-25T02:41:13.708Z,58.30
2018-08-25T02:43:43.962Z,59.00
2018-08-25T02:46:13.471Z,58.90
2018-08-25T02:48:42.834Z,58.80
2018-08-25T02:51:16.369Z,58.80
2018-08-25T02:53:45.645Z,58.90
2018-08-25T02:56:15.194Z,59.10
2018-08-25T02:58:44.709Z,59.00
2018-08-25T03:01:13.895Z,59.20
2018-08-25T03:03:43.219Z,59.00
2018-08-25T03:06:12.737Z,59.10
2018-08-25T03:08:42.685Z,59.10
2018-08-25T03:11:12.304Z,59.50
2018-08-25T03:13:42.115Z,59.50
2018-08-25T03:16:12.151Z,59.80
2018-08-25T03:18:43.901Z,59.80
2018-08-25T03:21:13.471Z,60.20
2018-08-25T03:23:42.825Z,60.30
2018-08-25T03:26:12.441Z,60.50
2018-08-25T03:28:41.792Z,60.90
2018-08-25T03:31:11.137Z,61.30
2018-08-25T03:33:42.057Z,61.60
2018-08-25T03:36:11.232Z,61.80
2018-08-25T03:38:40.835Z,62.10
2018-08-25T03:41:10.169Z,62.30
2018-08-25T03:43:39.984Z,62.30
2018-08-25T03:46:10.118Z,62.60
2018-08-25T03:48:39.688Z,62.60
2018-08-25T03:51:09.192Z,62.70
2018-08-25T03:53:38.435Z,62.80
2018-08-25T03:56:07.693Z,63.30
2018-08-25T03:58:37.172Z,63.40
2018-08-25T04:01:07.433Z,63.30
2018-08-25T04:03:39.832Z,63.70
2018-08-25T04:06:10.876Z,63.70
2018-08-25T04:08:40.653Z,64.00
2018-08-25T04:11:10.071Z,64.00
2018-08-25T04:13:39.234Z,64.10
2018-08-25T04:16:08.871Z,64.20
2018-08-25T04:18:38.330Z,64.20
2018-08-25T04:21:08.584Z,64.80
2018-08-25T04:23:38.164Z,64.80
2018-08-25T04:26:07.601Z,64.90
2018-08-25T04:28:36.902Z,65.10
2018-08-25T04:31:06.291Z,65.40
2018-08-25T04:33:36.745Z,65.60
2018-08-25T04:36:06.317Z,65.60
2018-08-25T04:38:35.870Z,65.80
2018-08-25T04:41:05.204Z,65.40
2018-08-25T04:43:36.917Z,65.50
2018-08-25T04:46:08.422Z,65.40
2018-08-25T04:48:38.155Z,65.70
2018-08-25T04:51:08.420Z,65.70
2018-08-25T04:53:40.510Z,66.00
2018-08-25T04:56:10.717Z,66.20
2018-08-25T04:58:41.051Z,66.40
2018-08-25T05:01:10.658Z,66.40
2018-08-25T05:03:40.493Z,66.60
2018-08-25T05:06:09.901Z,67.60
2018-08-25T05:08:39.590Z,67.20
2018-08-25T05:11:09.224Z,68.30
2018-08-25T05:13:38.512Z,68.00
2018-08-25T05:16:08.722Z,68.60
2018-08-25T05:18:38.133Z,68.50
2018-08-25T05:21:07.838Z,69.70
2018-08-25T05:23:37.436Z,69.40
2018-08-25T05:26:07.085Z,69.30
2018-08-25T05:28:37.677Z,69.70
2018-08-25T05:31:08.012Z,69.70
2018-08-25T05:33:37.510Z,69.90
2018-08-25T05:36:06.940Z,70.30
2018-08-25T05:38:36.228Z,71.00
2018-08-25T05:41:05.397Z,70.20
2018-08-25T05:43:34.900Z,70.10
2018-08-25T05:46:06.064Z,70.30
2018-08-25T05:48:35.557Z,70.50
2018-08-25T05:51:04.966Z,70.30
2018-08-25T05:53:35.129Z,70.50
2018-08-25T05:56:04.802Z,70.40
2018-08-25T05:58:34.908Z,70.60
2018-08-25T06:01:04.531Z,70.50
2018-08-25T06:03:34.149Z,70.90
2018-08-25T06:06:03.779Z,71.00
2018-08-25T06:08:33.400Z,71.20
2018-08-25T06:11:06.292Z,71.60
2018-08-25T06:13:51.167Z,71.90
2018-08-25T06:16:21.187Z,71.70
2018-08-25T06:18:50.706Z,72.20
2018-08-25T06:21:20.460Z,72.30
2018-08-25T06:23:50.144Z,72.20
2018-08-25T06:26:20.429Z,72.20
2018-08-25T06:28:49.980Z,72.10
2018-08-25T06:31:20.223Z,72.30
2018-08-25T06:33:50.368Z,72.30
2018-08-25T06:36:20.116Z,72.10
2018-08-25T06:38:49.838Z,71.70
2018-08-25T06:41:19.424Z,71.20
2018-08-25T06:43:48.984Z,70.90
2018-08-25T06:46:18.815Z,71.20
2018-08-25T06:48:48.631Z,72.70
2018-08-25T06:51:18.635Z,72.90
2018-08-25T06:53:48.049Z,73.00
2018-08-25T06:56:17.471Z,73.20
2018-08-25T06:58:47.611Z,73.70
2018-08-25T07:01:17.034Z,73.80
2018-08-25T07:03:46.325Z,73.90
2018-08-25T07:06:17.353Z,74.10
2018-08-25T07:08:46.752Z,74.00
2018-08-25T07:11:17.500Z,74.30
2018-08-25T07:13:47.591Z,74.30
2018-08-25T07:16:17.191Z,74.40
2018-08-25T07:18:46.496Z,74.30
2018-08-25T07:21:16.061Z,73.50
2018-08-25T07:23:45.572Z,73.00
2018-08-25T07:26:15.049Z,73.10
2018-08-25T07:28:45.278Z,73.50
2018-08-25T07:31:14.949Z,73.50
2018-08-25T07:33:44.377Z,73.40
2018-08-25T07:36:14.684Z,73.40
2018-08-25T07:38:44.044Z,73.30
2018-08-25T07:41:13.470Z,73.50
2018-08-25T07:43:42.894Z,73.90
2018-08-25T07:46:12.409Z,73.80
2018-08-25T07:48:42.859Z,73.70
2018-08-25T07:51:12.582Z,73.70
2018-08-25T07:53:41.891Z,73.70
2018-08-25T07:56:11.302Z,74.10
2018-08-25T07:58:40.945Z,74.10
2018-08-25T08:01:10.524Z,74.30
2018-08-25T08:03:39.945Z,74.30
2018-08-25T08:06:10.309Z,74.40
2018-08-25T08:08:40.069Z,74.70
2018-08-25T08:11:10.009Z,74.50
2018-08-25T08:13:40.840Z,74.90
2018-08-25T08:16:10.228Z,74.80
2018-08-25T08:18:40.396Z,75.00
2018-08-25T08:21:10.177Z,75.00
2018-08-25T08:23:39.529Z,75.20
2018-08-25T08:26:10.118Z,75.50
2018-08-25T08:28:40.586Z,75.90
2018-08-25T08:31:10.310Z,75.80
2018-08-25T08:33:40.052Z,75.80
2018-08-25T08:36:10.941Z,75.70
2018-08-25T08:38:41.308Z,75.60
2018-08-25T08:41:10.723Z,75.70
2018-08-25T08:43:40.332Z,75.40
2018-08-25T08:46:09.604Z,75.50
2018-08-25T08:48:39.345Z,75.70
2018-08-25T08:51:09.556Z,76.00
2018-08-25T08:53:38.898Z,75.80
2018-08-25T08:56:08.368Z,76.30
2018-08-25T08:58:38.034Z,76.50
2018-08-25T09:01:07.585Z,76.50
2018-08-25T09:03:37.020Z,76.60
2018-08-25T09:06:06.896Z,76.50
2018-08-25T09:08:36.488Z,76.60
2018-08-25T09:11:05.986Z,76.50
2018-08-25T09:13:35.610Z,76.40
2018-08-25T09:16:06.384Z,76.00
2018-08-25T09:18:36.341Z,76.40
2018-08-25T09:21:06.168Z,77.20
2018-08-25T09:23:35.562Z,76.40
2018-08-25T09:26:05.297Z,76.40
2018-08-25T09:28:34.838Z,76.40
2018-08-25T09:31:04.513Z,76.60
2018-08-25T09:33:33.837Z,76.60
2018-08-25T09:36:04.317Z,76.90
2018-08-25T09:38:33.951Z,76.80
2018-08-25T09:41:03.396Z,77.00
2018-08-25T09:43:34.389Z,76.90
2018-08-25T09:46:04.039Z,77.10
2018-08-25T09:48:34.220Z,77.20
2018-08-25T09:51:04.027Z,77.20
2018-08-25T09:53:33.791Z,77.20
2018-08-25T09:56:03.065Z,77.20
2018-08-25T09:58:33.367Z,77.60
2018-08-25T10:01:02.850Z,77.60
2018-08-25T10:03:32.499Z,77.40
2018-08-25T10:06:02.822Z,77.20
2018-08-25T10:08:32.928Z,77.40
2018-08-25T10:11:02.642Z,77.40
2018-08-25T10:13:32.375Z,77.10
2018-08-25T10:16:01.929Z,77.40
2018-08-25T10:18:32.260Z,77.20
2018-08-25T10:21:01.802Z,77.30
2018-08-25T10:23:31.392Z,77.20
2018-08-25T10:26:00.997Z,77.20
2018-08-25T10:28:30.432Z,77.70
2018-08-25T10:30:59.915Z,77.80
2018-08-25T10:33:30.121Z,78.10
2018-08-25T10:35:59.530Z,78.10
2018-08-25T10:38:29.379Z,78.20
2018-08-25T10:40:59.373Z,78.00
2018-08-25T10:43:29.766Z,77.90
2018-08-25T10:45:59.064Z,77.90
2018-08-25T10:48:29.169Z,77.70
2018-08-25T10:50:58.501Z,77.70
2018-08-25T10:53:30.885Z,77.90
2018-08-25T10:56:00.601Z,78.00
2018-08-25T10:58:30.156Z,77.70
2018-08-25T11:01:02.994Z,78.40
2018-08-25T11:03:32.686Z,77.80
2018-08-25T11:06:03.200Z,78.00
2018-08-25T11:08:32.743Z,78.00
2018-08-25T11:11:03.468Z,78.00
2018-08-25T11:13:32.975Z,78.00
2018-08-25T11:16:02.632Z,78.20
2018-08-25T11:18:32.258Z,78.30
2018-08-25T11:21:01.535Z,78.20
2018-08-25T11:23:31.178Z,78.20
2018-08-25T11:26:00.560Z,78.20
2018-08-25T11:28:29.917Z,78.20
2018-08-25T11:31:00.313Z,78.50
2018-08-25T11:33:30.544Z,78.50
2018-08-25T11:36:00.887Z,78.40
2018-08-25T11:38:31.223Z,78.60
2018-08-25T11:41:01.329Z,78.50
2018-08-25T11:43:31.534Z,78.70
2018-08-25T11:46:00.908Z,78.50
2018-08-25T11:48:30.144Z,78.10
2018-08-25T11:51:00.235Z,78.10
2018-08-25T11:53:29.735Z,78.10
2018-08-25T11:55:59.409Z,78.30
2018-08-25T11:58:28.795Z,78.80
2018-08-25T12:00:59.108Z,79.00
2018-08-25T12:03:29.414Z,78.90
2018-08-25T12:05:59.311Z,78.80
2018-08-25T12:08:28.652Z,78.90
2018-08-25T12:10:58.521Z,78.70
2018-08-25T12:13:27.902Z,79.00
2018-08-25T12:15:57.446Z,79.20
2018-08-25T12:18:27.599Z,80.20
2018-08-25T12:20:57.986Z,79.50
2018-08-25T12:23:28.240Z,79.40
2018-08-25T12:25:58.037Z,79.20
2018-08-25T12:28:28.552Z,78.80
2018-08-25T12:30:57.761Z,78.70
2018-08-25T12:33:27.276Z,78.90
2018-08-25T12:35:57.149Z,78.70
2018-08-25T12:38:27.331Z,78.90
2018-08-25T12:40:57.313Z,78.60
2018-08-25T12:43:26.592Z,78.70
2018-08-25T12:45:56.035Z,78.60
2018-08-25T12:48:26.325Z,78.30
2018-08-25T12:50:55.813Z,78.10
2018-08-25T12:53:26.172Z,77.80
2018-08-25T12:55:55.481Z,78.00
2018-08-25T12:58:25.145Z,78.30
2018-08-25T13:00:54.909Z,77.80
2018-08-25T13:03:25.170Z,77.40
2018-08-25T13:05:54.382Z,77.40
2018-08-25T13:08:23.813Z,77.20
2018-08-25T13:10:53.528Z,77.40
2018-08-25T13:13:23.164Z,77.20
2018-08-25T13:15:52.753Z,77.10
2018-08-25T13:18:22.718Z,76.80
2018-08-25T13:20:52.291Z,76.90
2018-08-25T13:23:22.026Z,76.70
2018-08-25T13:25:51.603Z,76.70
2018-08-25T13:28:21.814Z,77.00
2018-08-25T13:30:51.625Z,76.80
2018-08-25T13:33:21.193Z,76.70
2018-08-25T13:35:50.860Z,76.70
2018-08-25T13:38:20.392Z,76.50
2018-08-25T13:40:49.791Z,76.60
2018-08-25T13:43:19.240Z,76.80
2018-08-25T13:45:49.204Z,76.80
2018-08-25T13:48:18.580Z,76.60
2018-08-25T13:50:48.668Z,76.10
2018-08-25T13:53:18.357Z,76.30
2018-08-25T13:55:48.038Z,76.00
2018-08-25T13:58:17.732Z,76.20
2018-08-25T14:00:47.327Z,76.20
2018-08-25T14:03:17.328Z,76.20
2018-08-25T14:05:46.859Z,76.30
2018-08-25T14:08:17.210Z,76.40
2018-08-25T14:10:46.845Z,76.30
2018-08-25T14:13:16.208Z,75.70
2018-08-25T14:15:45.744Z,76.00
2018-08-25T14:18:15.339Z,76.50
2018-08-25T14:20:45.464Z,76.60
2018-08-25T14:23:16.038Z,77.10
2018-08-25T14:25:45.323Z,77.20
2018-08-25T14:28:16.262Z,77.20
2018-08-25T14:30:45.869Z,76.80
2018-08-25T14:33:15.525Z,76.70
2018-08-25T14:35:44.913Z,76.60
2018-08-25T14:38:15.077Z,77.10
2018-08-25T14:40:44.640Z,77.10
2018-08-25T14:43:14.308Z,77.80
2018-08-25T14:45:43.772Z,77.30
2018-08-25T14:48:13.430Z,78.30
2018-08-25T14:50:42.670Z,78.50
2018-08-25T14:53:12.147Z,78.80
2018-08-25T14:55:42.098Z,79.30
2018-08-25T14:58:11.346Z,80.10
2018-08-25T15:00:41.002Z,80.20
2018-08-25T15:03:11.332Z,79.40
2018-08-25T15:05:40.910Z,80.10
2018-08-25T15:08:10.181Z,81.00
2018-08-25T15:10:39.602Z,81.70
2018-08-25T15:13:09.182Z,81.60
2018-08-25T15:15:38.480Z,82.50
2018-08-25T15:18:08.075Z,83.10
2018-08-25T15:20:37.392Z,83.20
2018-08-25T15:23:06.959Z,83.90
2018-08-25T15:25:37.944Z,84.10
2018-08-25T15:28:07.495Z,85.00
2018-08-25T15:30:36.868Z,85.80
2018-08-25T15:33:06.703Z,86.30
2018-08-25T15:35:35.975Z,85.80
2018-08-25T15:38:06.245Z,86.20
2018-08-25T15:40:35.866Z,86.60
2018-08-25T15:43:05.473Z,86.60
2018-08-25T15:45:35.301Z,87.40
2018-08-25T15:48:05.081Z,87.60
2018-08-25T15:50:34.534Z,88.00
2018-08-25T15:53:04.477Z,87.50
2018-08-25T15:55:34.011Z,87.00
2018-08-25T15:58:04.521Z,87.10
2018-08-25T16:00:34.429Z,86.90
2018-08-25T16:03:04.992Z,86.20
2018-08-25T16:05:35.541Z,86.00
2018-08-25T16:08:04.945Z,85.80
2018-08-25T16:10:35.267Z,86.50
2018-08-25T16:13:04.854Z,86.40
2018-08-25T16:15:34.281Z,86.10
2018-08-25T16:18:04.351Z,86.30
2018-08-25T16:20:34.904Z,86.90
2018-08-25T16:23:04.251Z,86.90
2018-08-25T16:25:33.752Z,87.20
2018-08-25T16:28:03.693Z,87.10
2018-08-25T16:30:33.285Z,87.70
2018-08-25T16:33:02.925Z,87.00
2018-08-25T16:35:33.502Z,86.70
2018-08-25T16:38:03.440Z,86.70
2018-08-25T16:40:33.258Z,86.90
2018-08-25T16:43:02.260Z,85.60
2018-08-25T16:45:32.861Z,85.40
2018-08-25T16:48:03.268Z,84.80
2018-08-25T16:50:33.443Z,84.30
2018-08-25T16:53:06.938Z,84.30
2018-08-25T16:55:37.378Z,85.00
2018-08-25T16:58:07.741Z,83.30
2018-08-25T17:00:37.068Z,83.30
2018-08-25T17:03:06.492Z,84.80
2018-08-25T17:05:36.017Z,86.60
2018-08-25T17:08:05.926Z,84.70
2018-08-25T17:10:35.396Z,85.50
2018-08-25T17:13:05.530Z,87.20
2018-08-25T17:15:35.864Z,85.60
2018-08-25T17:18:05.498Z,87.90
2018-08-25T17:20:35.184Z,87.30
2018-08-25T17:23:04.921Z,87.70
2018-08-25T17:25:34.347Z,88.70
2018-08-25T17:28:03.670Z,87.40
2018-08-25T17:30:33.569Z,88.50
2018-08-25T17:33:03.184Z,88.50
2018-08-25T17:35:32.880Z,88.80
2018-08-25T17:38:02.573Z,88.90
2018-08-25T17:40:31.966Z,89.70
2018-08-25T17:43:01.105Z,89.20
2018-08-25T17:45:31.061Z,89.10
2018-08-25T17:48:01.247Z,88.00
2018-08-25T17:50:30.836Z,88.00
2018-08-25T17:53:00.785Z,88.20
2018-08-25T17:55:30.407Z,88.00
2018-08-25T17:58:01.775Z,90.00
2018-08-25T18:00:31.260Z,89.90
2018-08-25T18:03:00.954Z,88.90
2018-08-25T18:05:30.296Z,89.30
2018-08-25T18:07:59.841Z,89.80
2018-08-25T18:10:29.624Z,88.60
2018-08-25T18:13:00.016Z,89.90
2018-08-25T18:15:29.900Z,89.80
2018-08-25T18:17:59.820Z,88.50
2018-08-25T18:20:29.572Z,89.50
2018-08-25T18:22:59.701Z,89.70
2018-08-25T18:25:29.279Z,89.60
2018-08-25T18:27:58.838Z,89.80
2018-08-25T18:30:29.337Z,89.70
2018-08-25T18:32:59.064Z,90.00
2018-08-25T18:35:29.857Z,89.60
2018-08-25T18:37:59.149Z,90.10
2018-08-25T18:40:28.754Z,90.10
2018-08-25T18:42:58.267Z,90.00
2018-08-25T18:45:28.557Z,89.90
2018-08-25T18:48:00.093Z,89.80
2018-08-25T18:50:30.407Z,89.50
2018-08-25T18:53:00.381Z,90.00
2018-08-25T18:55:30.115Z,90.20
2018-08-25T18:57:59.503Z,90.20
2018-08-25T19:00:30.814Z,90.10
2018-08-25T19:03:00.498Z,90.10
2018-08-25T19:05:29.950Z,90.40
2018-08-25T19:07:59.981Z,90.40
2018-08-25T19:10:29.707Z,88.90
2018-08-25T19:12:59.177Z,90.00
2018-08-25T19:15:29.627Z,90.30
2018-08-25T19:17:59.681Z,90.00
2018-08-25T19:20:29.666Z,90.40
2018-08-25T19:23:00.989Z,90.60
2018-08-25T19:25:30.445Z,90.50
2018-08-25T19:28:00.023Z,90.50
2018-08-25T19:30:30.446Z,90.80
2018-08-25T19:33:01.053Z,90.80
2018-08-25T19:35:30.593Z,91.00
2018-08-25T19:37:59.992Z,90.80
2018-08-25T19:40:30.514Z,90.30
2018-08-25T19:43:00.542Z,90.20
2018-08-25T19:45:29.957Z,90.20
2018-08-25T19:47:59.555Z,89.40
2018-08-25T19:50:29.044Z,90.00
2018-08-25T19:52:59.531Z,90.60
2018-08-25T19:55:28.888Z,90.70
2018-08-25T19:57:58.378Z,90.90
2018-08-25T20:00:28.604Z,91.10
2018-08-25T20:02:59.125Z,91.00
2018-08-25T20:05:28.674Z,91.00
2018-08-25T20:07:58.524Z,90.70
2018-08-25T20:10:27.938Z,90.90
2018-08-25T20:12:57.353Z,91.00
2018-08-25T20:15:27.734Z,90.10
2018-08-25T20:17:57.297Z,90.10
2018-08-25T20:20:26.927Z,90.50
2018-08-25T20:22:57.320Z,90.70
2018-08-25T20:25:27.248Z,90.70
2018-08-25T20:27:56.725Z,90.60
2018-08-25T20:30:26.413Z,90.30
2018-08-25T20:32:55.854Z,90.00
2018-08-25T20:35:25.174Z,89.40
2018-08-25T20:37:54.549Z,90.50
2018-08-25T20:40:24.044Z,90.50
2018-08-25T20:42:53.768Z,90.60
2018-08-25T20:45:23.468Z,90.80
2018-08-25T20:47:53.771Z,90.80
2018-08-25T20:50:23.520Z,90.80
2018-08-25T20:52:54.236Z,91.00
2018-08-25T20:55:23.844Z,90.90
2018-08-25T20:57:53.840Z,90.40
2018-08-25T21:00:23.510Z,91.20
2018-08-25T21:02:56.347Z,91.40
2018-08-25T21:05:26.086Z,90.70
2018-08-25T21:07:56.489Z,91.40
2018-08-25T21:10:26.224Z,91.40
2018-08-25T21:12:56.695Z,91.60
2018-08-25T21:15:26.441Z,91.60
2018-08-25T21:17:56.169Z,91.40
2018-08-25T21:20:25.887Z,91.60
2018-08-25T21:22:56.147Z,91.80
2018-08-25T21:25:25.610Z,91.80
2018-08-25T21:27:55.199Z,91.60
2018-08-25T21:30:25.807Z,91.50
2018-08-25T21:32:55.506Z,91.30
2018-08-25T21:35:25.057Z,92.20
2018-08-25T21:37:55.570Z,92.20
2018-08-25T21:40:25.286Z,92.20
2018-08-25T21:42:54.669Z,92.30
2018-08-25T21:45:24.316Z,92.40
2018-08-25T21:47:53.898Z,91.70
2018-08-25T21:50:23.408Z,91.90
2018-08-25T21:52:53.695Z,92.70
2018-08-25T21:55:23.256Z,92.70
2018-08-25T21:57:52.873Z,92.00
2018-08-25T22:00:22.540Z,91.80
2018-08-25T22:02:52.084Z,91.90
2018-08-25T22:05:22.191Z,92.00
2018-08-25T22:07:51.550Z,91.70
2018-08-25T22:10:21.056Z,91.70
2018-08-25T22:12:51.443Z,91.80
2018-08-25T22:15:29.857Z,91.50
2018-08-25T22:17:59.365Z,91.60
2018-08-25T22:20:29.239Z,91.60
2018-08-25T22:22:59.121Z,91.40
2018-08-25T22:25:28.419Z,90.90
2018-08-25T22:27:57.974Z,91.20
2018-08-25T22:30:28.491Z,91.30
2018-08-25T22:32:59.250Z,91.10
2018-08-25T22:35:29.677Z,91.40
2018-08-25T22:37:59.084Z,91.10
2018-08-25T22:40:29.891Z,91.50
2018-08-25T22:42:59.416Z,91.50
2018-08-25T22:45:29.562Z,91.40
2018-08-25T22:47:58.972Z,90.80
2018-08-25T22:50:28.601Z,91.20
2018-08-25T22:52:58.776Z,91.40
2018-08-25T22:55:28.646Z,91.10
2018-08-25T22:57:58.397Z,91.10
2018-08-25T23:00:29.036Z,90.80
2018-08-25T23:02:58.704Z,91.20
2018-08-25T23:05:28.413Z,90.90
2018-08-25T23:07:58.017Z,91.00
2018-08-25T23:10:28.521Z,90.70
2018-08-25T23:12:59.003Z,90.60
2018-08-25T23:15:29.953Z,90.60
2018-08-25T23:18:00.476Z,90.80
2018-08-25T23:20:30.787Z,90.70
2018-08-25T23:23:00.863Z,90.70
2018-08-25T23:25:31.596Z,90.80
2018-08-25T23:28:01.250Z,90.70
2018-08-25T23:30:30.897Z,90.30
2018-08-25T23:33:00.233Z,90.40
2018-08-25T23:35:30.883Z,90.60
2018-08-25T23:38:00.800Z,90.60
2018-08-25T23:40:32.005Z,90.50
2018-08-25T23:43:01.982Z,90.90
2018-08-25T23:45:31.904Z,90.80
2018-08-25T23:48:02.415Z,91.10
2018-08-25T23:50:31.803Z,91.30
2018-08-25T23:53:00.929Z,91.50
2018-08-25T23:55:30.405Z,90.80
2018-08-25T23:58:00.200Z,90.90
